Tiempo atmosférico en la estación meteorológica de Brozas , Cáceres (411 m.)

Fecha
DESCASC
Temp. máxima en grados centígrados (hora)
DESCASC
Temp. mínima en grados centígrados (hora)
DESCASC
Temp. media en grados centígrados
DESCASC
Racha de viento máxima en m/sg (hora)
DESCASC
Velocidad máxima media en intervalos de 10 minutos(hora)
DESCASC
Precipitaciones diarias en mm
DESCASC
Precipitaciones de 00:00 a 06:00 en mm
DESCASC
Precipitaciones de 06:00 a 12:00 en mm
DESCASC
Precipitaciones de 12:00 a 18:00 en mm
DESCASC
Precipitaciones de 18:00 a 24:00 en mm
DESCASC
14-12-2017 13.7 (14:10) 8.7 (02:00) 11.2 10.56 (13:50) 8.33 (13:50) 0.4 0 0 0.4 0
13-12-2017 12.2 (14:50) 2.6 (08:50) 7.4 5.28 (20:00) 3.61 (20:00) 0 0 0 0 0
12-12-2017 10.9 (15:50) 2.1 (06:30) 6.5 9.17 (03:30) 8.06 (05:00) 0 0 0 0 0
11-12-2017 12.7 (01:20) 3.8 (23:59) 8.2 21.39 (01:40) 15.28 (00:50) 16.6 16.4 0 0.2 0
10-12-2017 13 (16:20) 9.4 (00:00) 11.2 17.78 (23:59) 13.33 (23:59) 2.6 0 0 1.8 0.8
09-12-2017 17.8 (15:20) 9.3 (00:00) 13.5 9.44 (14:40) 6.67 (14:50) 0 0 0 0 0
08-12-2017 15.6 (16:00) 5.1 (00:00) 10.4 8.33 (15:50) 6.11 (16:00) 0 0 0 0 0
07-12-2017 13.3 (15:00) 1.7 (00:00) 7.5 4.17 (08:20) 3.89 (08:30) 0 0 0 0 0
06-12-2017 11.3 (15:40) 1.4 (00:00) 6.4 5.56 (00:50) 4.44 (00:50) 0 0 0 0 0
05-12-2017 12.4 (15:10) 1 (00:00) 6.7 9.17 (00:20) 6.94 (00:20) 0 0 0 0 0
04-12-2017 10.9 (16:00) 0.6 (00:00) 5.7 8.61 (23:50) 6.94 (23:59) 0 0 0 0 0
03-12-2017 10.7 (16:10) 2 (00:00) 6.3 8.61 (06:50) 6.11 (11:50) 0 0 0 0 0
02-12-2017 9.9 (15:40) -0.2 (00:00) 4.8 7.78 (12:50) 5.28 (12:50) 0 0 0 0 0
01-12-2017 11.8 (14:50) 0.8 (00:00) 6.3 14.72 (16:50) 10.83 (14:50) 0 0 0 0 0
30-11-2017 10.7 (15:10) 3.2 (00:00) 6.9 10.56 (07:40) 7.78 (08:20) 0 0 0 0 0
29-11-2017 11.9 (14:40) 4.9 (00:00) 8.4 8.61 (15:10) 6.94 (20:50) 0.2 0.2 0 0 0
28-11-2017 9.8 (15:10) 7.7 (00:00) 8.8 4.44 (21:20) 3.61 (21:20) 16.2 0 8.2 4.2 3.8
27-11-2017 13.8 (14:50) 6.3 (00:00) 10.1 8.61 (07:30) 6.11 (02:10) 0 0 0 0 0
26-11-2017 13.9 (15:00) 6.8 (00:00) 10.3 11.39 (11:20) 7.78 (11:20) 0 0 0 0 0
25-11-2017 15.9 (15:50) 10.3 (00:00) 13.1 6.11 (23:59) 4.72 (23:59) 0 0 0 0 0
24-11-2017 18.8 (16:10) 11.1 (00:00) 14.9 9.44 (14:30) 6.67 (11:40) 1 0.4 0.6 0 0
23-11-2017 19.8 (16:40) 11 (00:00) 15.4 11.67 (16:40) 8.61 (22:40) 12.2 0 0 0 12.2
22-11-2017 20.2 (15:10) 8.5 (00:00) 14.4 9.72 (13:50) 7.22 (13:50) 0 0 0 0 0
21-11-2017 22.1 (16:00) 5.9 (00:00) 14 5.83 (07:40) 5 (07:40) 0 0 0 0 0
20-11-2017 20.4 (16:10) 6.7 (00:00) 13.5 5.56 (02:10) 5.28 (02:10) 0 0 0 0 0
19-11-2017 20.2 (15:00) 7.4 (00:00) 13.8 6.67 (07:50) 5.28 (06:30) 0 0 0 0 0
18-11-2017 19.3 (16:30) 7.7 (00:00) 13.5 6.94 (14:00) 5.56 (08:10) 0 0 0 0 0
17-11-2017 20.5 (16:30) 7.3 (00:00) 13.9 5 (11:30) 3.61 (11:20) 0 0 0 0 0

Gráficas

Temp. máximas Temp. mínimas Temp. medias Precipitaciones Rachas de viento máximas Velocidades máximas media en intervalos de 10 minutos

Datos horarios

Fecha y hora oficial Temperatura (ºC) Velocidad del viento (km/h) Dirección del viento Racha (km/h) Dirección de racha Precipitación (mm) Presión (hPa) Tendencia (hPa) Humedad (%)
2017-12-16 23:00:00 5.2 16 Nordeste 27 Nordeste 0 -- -- 68
2017-12-16 22:00:00 5.6 18 Nordeste 26 Norte 0 -- -- 66
2017-12-16 21:00:00 6.1 19 Norte 31 Nordeste 0 -- -- 64
2017-12-16 20:00:00 7.3 21 Nordeste 32 Norte 0 -- -- 56
2017-12-16 19:00:00 7.5 19 Nordeste 24 Nordeste 0 -- -- 58
2017-12-16 18:00:00 8.3 12 Nordeste 22 Nordeste 0 -- -- 58
2017-12-16 17:00:00 10.6 15 Nordeste 31 Nordeste 0 -- -- 53
2017-12-16 16:00:00 11.2 24 Nordeste 33 Nordeste 0 -- -- 45
2017-12-16 15:00:00 11.5 20 Nordeste 33 Norte 0 -- -- 49
2017-12-16 14:00:00 11.1 21 Nordeste 36 Nordeste 0 -- -- 53
2017-12-16 13:00:00 9.9 18 Nordeste 34 Norte 0 -- -- 60
2017-12-16 12:00:00 8.8 22 Nordeste 37 Nordeste 0 -- -- 64
2017-12-16 11:00:00 7.1 23 Norte 29 Norte 0 -- -- 71
2017-12-16 10:00:00 4.7 19 Norte 23 Norte 0 -- -- 80
2017-12-16 09:00:00 2.9 18 Norte 23 Norte 0 -- -- 84
2017-12-16 08:00:00 3.4 18 Norte 22 Norte 0 -- -- 81
2017-12-16 07:00:00 2.2 13 Noroeste 16 Norte 0 -- -- 85
2017-12-16 06:00:00 3.4 10 Norte 23 Norte 0 -- -- 79
2017-12-16 05:00:00 3.4 19 Norte 24 Norte 0 -- -- 82
2017-12-16 04:00:00 3.1 18 Noroeste 20 Noroeste 0 -- -- 82
2017-12-16 03:00:00 3.4 17 Norte 22 Norte 0 -- -- 82
2017-12-16 02:00:00 4.5 16 Norte 22 Norte 0 -- -- 76
2017-12-16 01:00:00 5.3 14 Norte 28 Norte 0 -- -- 71
2017-12-16 00:00:00 5.8 22 Norte 32 Norte 0 -- -- 71
2017-12-15 23:00:00 5.4 17 Noroeste 26 Norte 0 -- -- 74
2017-12-15 22:00:00 5.3 19 Noroeste 26 Norte 0 -- -- 78
2017-12-15 21:00:00 6.3 21 Norte 24 Norte 0 -- -- 78
2017-12-15 20:00:00 7.4 10 Norte 23 Norte 0 -- -- 78
2017-12-15 19:00:00 9.1 19 Norte 36 Norte 0 -- -- 71
2017-12-15 18:00:00 10.1 16 Norte 30 Norte 0 -- -- 74
2017-12-15 17:00:00 11.7 24 Noroeste 33 Noroeste 0 -- -- 64
2017-12-15 16:00:00 13.1 26 Noroeste 32 Noroeste 0 -- -- 85
2017-12-15 15:00:00 13.9 24 Noroeste 34 Noroeste 0 -- -- 90
2017-12-15 14:00:00 13.4 26 Noroeste 36 Noroeste 0.2 -- -- 96
2017-12-15 13:00:00 13.3 28 Oeste 49 Oeste 0 -- -- 97
2017-12-15 12:00:00 13.9 32 Oeste 44 Sudoeste 0 -- -- 93
2017-12-15 11:00:00 12.7 29 Oeste 37 Oeste 0 -- -- 98
2017-12-15 10:00:00 11.6 24 Sudoeste 31 Sudoeste 0 -- -- 100
2017-12-15 09:00:00 10.4 12 Sudoeste 22 Oeste 0 -- -- 100
2017-12-15 08:00:00 10.2 13 Sudoeste 19 Sudoeste 0 -- -- 100
2017-12-15 07:00:00 9.4 14 Sudoeste 20 Sudoeste 0 -- -- 100
2017-12-15 06:00:00 9.1 17 Sudoeste 22 Sudoeste 0 -- -- 99
2017-12-15 05:00:00 8.8 13 Oeste 18 Sudoeste 0 -- -- 98
2017-12-15 04:00:00 9.5 9 Oeste 16 Oeste 0 -- -- 96
2017-12-15 03:00:00 10.1 12 Oeste 28 Oeste 0 -- -- 96
2017-12-15 02:00:00 10.1 22 Oeste 30 Oeste 0 -- -- 95
2017-12-15 01:00:00 10.6 26 Oeste 37 Oeste 0 -- -- 96
2017-12-15 00:00:00 11 22 Oeste 29 Oeste 0 -- -- 96
2017-12-14 23:00:00 11.7 19 Oeste 32 Oeste 0 -- -- 96
2017-12-14 22:00:00 11.9 21 Oeste 28 Oeste 0 -- -- 97
2017-12-14 21:00:00 11.7 20 Sudoeste 27 Sudoeste 0 -- -- 97
2017-12-14 20:00:00 11.6 15 Sudoeste 26 Sudoeste 0 -- -- 95
2017-12-14 19:00:00 12.3 16 Oeste 24 Oeste 0 -- -- 94
2017-12-14 18:00:00 12.4 19 Oeste 28 Oeste 0 -- -- 93
2017-12-14 17:00:00 12.8 18 Oeste 33 Oeste 0 -- -- 95
2017-12-14 16:00:00 13 22 Oeste 33 Oeste 0.4 -- -- 97
2017-12-14 15:00:00 13.5 22 Oeste 37 Oeste 0 -- -- 90
2017-12-14 14:00:00 13.6 28 Oeste 38 Oeste 0 -- -- 89
2017-12-14 13:00:00 13.5 25 Sudoeste 34 Sudoeste 0 -- -- 90
2017-12-14 12:00:00 12.5 18 Sudoeste 28 Sudoeste 0 -- -- 96
2017-12-14 11:00:00 11.7 19 Sudoeste 24 Sudoeste 0 -- -- 99
2017-12-14 10:00:00 10.6 9 Sudoeste 13 Sudoeste 0 -- -- 100
2017-12-14 09:00:00 10 6 Sudoeste 18 Oeste 0 -- -- 99
2017-12-14 08:00:00 10 14 Oeste 24 Sudoeste 0 -- -- 99
2017-12-14 07:00:00 9.6 7 Sudoeste 13 Sudoeste 0 -- -- 98
2017-12-14 06:00:00 9 7 Sudoeste 11 Sur 0 -- -- 98
2017-12-14 05:00:00 8.9 6 Sudoeste 12 Sur 0 -- -- 98
2017-12-14 04:00:00 9.1 7 Sur 9 Sudoeste 0 -- -- 98
2017-12-14 03:00:00 8.9 9 Sudoeste 13 Sudoeste 0 -- -- 98
2017-12-14 02:00:00 8.7 6 Sur 10 Sur 0 -- -- 96
2017-12-14 01:00:00 8.9 5 Oeste 12 Oeste 0 -- -- 95
2017-12-14 00:00:00 8.9 8 Oeste 14 Oeste 0 -- -- 95
2017-12-13 23:00:00 8.9 9 Oeste 15 Oeste 0 -- -- 93
2017-12-13 22:00:00 9.1 11 Oeste 15 Oeste 0 -- -- 89
2017-12-13 21:00:00 9.1 10 Noroeste 15 Noroeste 0 -- -- 85
2017-12-13 20:00:00 9.3 13 Oeste 19 Oeste 0 -- -- 81
2017-12-13 19:00:00 9.6 7 Noroeste 9 Noroeste 0 -- -- 79
2017-12-13 18:00:00 10.1 7 Noroeste 13 Oeste 0 -- -- 76
2017-12-13 17:00:00 10.5 6 Noroeste 17 Noroeste 0 -- -- 71
2017-12-13 16:00:00 11.4 12 Oeste 17 Oeste 0 -- -- 66
2017-12-13 15:00:00 12 7 Sudoeste 16 Sur 0 -- -- 58
2017-12-13 14:00:00 11.3 7 Sudoeste 12 Sudoeste 0 -- -- 66
2017-12-13 13:00:00 10.5 7 Sudoeste 14 Sur 0 -- -- 64
2017-12-13 12:00:00 9.4 11 Sur 17 Sur 0 -- -- 70
2017-12-13 11:00:00 6.8 7 Este 12 Este 0 -- -- 78
2017-12-13 10:00:00 5.1 4 Este 9 Sur 0 -- -- 84
2017-12-13 09:00:00 2.7 8 Sur 11 Sur 0 -- -- 87
2017-12-13 08:00:00 3.5 7 Sur 10 Sur 0 -- -- 84
2017-12-13 07:00:00 4.3 6 Sur 8 Sudeste 0 -- -- 79
2017-12-13 06:00:00 4.6 2 Sudeste 4 Noroeste 0 -- -- 79
2017-12-13 05:00:00 4.7 4 Noroeste 9 Sudoeste 0 -- -- 79
2017-12-13 04:00:00 5.2 4 Sudoeste 6 Sudoeste 0 -- -- 76
2017-12-13 03:00:00 5.4 4 Sudoeste 6 Oeste 0 -- -- 73
2017-12-13 02:00:00 5.5 4 Oeste 5 Oeste 0 -- -- 72
2017-12-13 01:00:00 5.5 4 Norte 9 Nordeste 0 -- -- 72
2017-12-13 00:00:00 6.1 10 Nordeste 11 Nordeste 0 -- -- 70
2017-12-12 23:00:00 5.9 11 Norte 14 Norte 0 -- -- 70
2017-12-12 22:00:00 5.9 10 Norte 11 Norte 0 -- -- 71
2017-12-12 21:00:00 6.5 9 Norte 12 Norte 0 -- -- 69
2017-12-12 20:00:00 6.8 8 Nordeste 13 Norte 0 -- -- 67
2017-12-12 19:00:00 6.8 12 Norte 19 Norte 0 -- -- 68
2017-12-12 18:00:00 8.6 13 Norte 24 Norte 0 -- -- 64
2017-12-12 17:00:00 10.7 14 Noroeste 21 Norte 0 -- -- 55
2017-12-12 16:00:00 10.9 18 Norte 27 Norte 0 -- -- 54
2017-12-12 15:00:00 10.5 14 Norte 28 Norte 0 -- -- 57
2017-12-12 14:00:00 9.7 15 Norte 26 Noroeste 0 -- -- 62
2017-12-12 13:00:00 8.5 18 Noroeste 25 Noroeste 0 -- -- 65
2017-12-12 12:00:00 7.4 16 Norte 22 Norte 0 -- -- 70
2017-12-12 11:00:00 6.1 9 Noroeste 13 Noroeste 0 -- -- 75
2017-12-12 10:00:00 4.3 6 Noroeste 9 Noroeste 0 -- -- 77
2017-12-12 09:00:00 2.8 10 Norte 16 Norte 0 -- -- 81
2017-12-12 08:00:00 2.2 11 Norte 18 Norte 0 -- -- 82
2017-12-12 07:00:00 2.5 15 Norte 23 Norte 0 -- -- 82
2017-12-12 06:00:00 2.4 22 Noroeste 31 Norte 0 -- -- 83
2017-12-12 05:00:00 2.9 29 Noroeste 33 Noroeste 0 -- -- 82
2017-12-12 04:00:00 2.8 23 Norte 33 Norte 0 -- -- 81
2017-12-12 03:00:00 2.6 21 Norte 28 Norte 0 -- -- 82
2017-12-12 02:00:00 2.6 14 Norte 17 Norte 0 -- -- 81
2017-12-12 01:00:00 3.7 16 Norte 24 Noroeste 0 -- -- 76
2017-12-12 00:00:00 3.8 20 Norte 26 Norte 0 -- -- 78
2017-12-11 23:00:00 4.5 19 Norte 35 Norte 0 -- -- 75
2017-12-11 22:00:00 5.4 33 Norte 43 Noroeste 0 -- -- 71
2017-12-11 21:00:00 5.7 21 Norte 36 Norte 0 -- -- 81
2017-12-11 20:00:00 5.9 18 Noroeste 28 Noroeste 0 -- -- 89
2017-12-11 19:00:00 7 21 Noroeste 39 Noroeste 0 -- -- 86
2017-12-11 18:00:00 8.2 23 Noroeste 40 Oeste 0 -- -- 82
2017-12-11 17:00:00 9.4 30 Noroeste 48 Oeste 0 -- -- 79
2017-12-11 16:00:00 9.5 28 Oeste 43 Oeste 0 -- -- 83
2017-12-11 15:00:00 9.1 27 Oeste 39 Oeste 0.2 -- -- 86
2017-12-11 14:00:00 8.6 27 Oeste 39 Oeste 0 -- -- 87
2017-12-11 13:00:00 9.1 28 Oeste 38 Oeste 0 -- -- 77
2017-12-11 12:00:00 8.7 23 Oeste 39 Oeste 0 -- -- 78
2017-12-11 11:00:00 7.4 28 Oeste 39 Oeste 0 -- -- 86
2017-12-11 10:00:00 6.4 28 Oeste 40 Oeste 0 -- -- 90
2017-12-11 09:00:00 5.8 23 Oeste 32 Oeste 0 -- -- 94
2017-12-11 08:00:00 6.3 26 Oeste 37 Oeste 0 -- -- 94
2017-12-11 07:00:00 6.8 22 Oeste 42 Oeste 0 -- -- 93
2017-12-11 06:00:00 7.1 31 Oeste 45 Oeste 0 -- -- 93
2017-12-11 05:00:00 7 31 Sudoeste 44 Sudoeste 0.4 -- -- 92
2017-12-11 04:00:00 7.3 31 Oeste 68 Noroeste 1.6 -- -- 91
2017-12-11 03:00:00 8.9 41 Noroeste 63 Noroeste 3.6 -- -- 96
2017-12-11 02:00:00 9.7 40 Noroeste 77 Oeste 8 -- -- 96
2017-12-11 01:00:00 12.5 54 Sudoeste 73 Sudoeste 2.8 -- -- 95
2017-12-11 00:00:00 12.3 48 Sudoeste 64 Sudoeste 0.6 -- -- 92
2017-12-10 23:00:00 12.9 44 Sudoeste 58 Sudoeste 0 -- -- 82
2017-12-10 22:00:00 12.7 41 Sudoeste 61 Sudoeste 0 -- -- 85
2017-12-10 21:00:00 12.5 33 Sudoeste 46 Sudoeste 0.2 -- -- 87
2017-12-10 20:00:00 12 35 Sudoeste 45 Sudoeste 0 -- -- 92
2017-12-10 19:00:00 12.5 34 Sudoeste 50 Sudoeste 0 -- -- 83
2017-12-10 18:00:00 12.2 25 Sudoeste 50 Sudoeste 0.6 -- -- 88
2017-12-10 17:00:00 12.5 32 Sudoeste 45 Sudoeste 0 -- -- 88
2017-12-10 16:00:00 12.8 23 Sudoeste 38 Sudoeste 0 -- -- 87
2017-12-10 15:00:00 12.6 24 Sudoeste 45 Oeste 0.6 -- -- 97
2017-12-10 14:00:00 11.9 23 Sudoeste 34 Sudoeste 0.6 -- -- 98
2017-12-10 13:00:00 12 27 Sudoeste 42 Sudoeste 0 -- -- 95
2017-12-10 12:00:00 12.6 23 Sudoeste 36 Sudoeste 0 -- -- 91
2017-12-10 11:00:00 11.7 18 Sudoeste 28 Sudoeste 0 -- -- 97
2017-12-10 10:00:00 10.8 21 Sudoeste 28 Sudoeste 0 -- -- 99
2017-12-10 09:00:00 9.7 15 Sudoeste 21 Sudoeste 0 -- -- 98
2017-12-10 08:00:00 9.5 14 Sudoeste 19 Sudoeste 0 -- -- 97
2017-12-10 07:00:00 9.9 13 Sudoeste 26 Sudoeste 0 -- -- 96
2017-12-10 06:00:00 10 19 Sudoeste 27 Sudoeste 0 -- -- 96
2017-12-10 05:00:00 10.3 19 Oeste 27 Oeste 0 -- -- 97
2017-12-10 04:00:00 10.7 20 Oeste 28 Oeste 0 -- -- 98
2017-12-10 03:00:00 10 14 Sudoeste 27 Sudoeste 0 -- -- 98
2017-12-10 02:00:00 10.3 17 Oeste 24 Oeste 0 -- -- 97
2017-12-10 01:00:00 10.6 18 Oeste 28 Oeste 0 -- -- 95
2017-12-10 00:00:00 11.2 18 Oeste 26 Oeste 0 -- -- 93
2017-12-09 23:00:00 11.5 13 Oeste 28 Oeste 0 -- -- 92
2017-12-09 22:00:00 11.6 17 Oeste 26 Oeste 0 -- -- 91
2017-12-09 21:00:00 11.8 6 Oeste 17 Oeste 0 -- -- 83
2017-12-09 20:00:00 12.5 11 Noroeste 24 Noroeste 0 -- -- 82
2017-12-09 19:00:00 13.3 21 Noroeste 27 Noroeste 0 -- -- 78
2017-12-09 18:00:00 14.4 15 Noroeste 20 Noroeste 0 -- -- 70
2017-12-09 17:00:00 16.2 10 Noroeste 27 Noroeste 0 -- -- 64
2017-12-09 16:00:00 17.1 19 Noroeste 29 Oeste 0 -- -- 60
2017-12-09 15:00:00 17.3 19 Noroeste 34 Noroeste 0 -- -- 61
2017-12-09 14:00:00 17 22 Noroeste 31 Oeste 0 -- -- 65
2017-12-09 13:00:00 15.6 22 Noroeste 27 Noroeste 0 -- -- 76
2017-12-09 12:00:00 14.4 18 Noroeste 24 Oeste 0 -- -- 87
2017-12-09 11:00:00 12.5 18 Noroeste 23 Oeste 0 -- -- 99
2017-12-09 10:00:00 10.7 12 Noroeste 16 Noroeste 0 -- -- 100
2017-12-09 09:00:00 9.7 10 Noroeste 17 Noroeste 0 -- -- 99
2017-12-09 08:00:00 9.6 10 Noroeste 13 Noroeste 0 -- -- 99
2017-12-09 07:00:00 9.7 12 Noroeste 16 Noroeste 0 -- -- 99
2017-12-09 06:00:00 10.1 6 Noroeste 18 Oeste 0 -- -- 98
2017-12-09 05:00:00 10.8 15 Oeste 19 Oeste 0 -- -- 99
2017-12-09 04:00:00 10.5 11 Oeste 16 Oeste 0 -- -- 98
2017-12-09 03:00:00 10.8 12 Noroeste 17 Noroeste 0 -- -- 99
2017-12-09 02:00:00 10.1 7 Oeste 12 Oeste 0 -- -- 98
2017-12-09 01:00:00 10.3 8 Noroeste 12 Noroeste 0 -- -- 98
2017-12-09 00:00:00 9.5 6 Oeste 15 Oeste 0 -- -- 98
2017-12-08 23:00:00 10 9 Oeste 14 Oeste 0 -- -- 98
2017-12-08 22:00:00 10 10 Oeste 13 Oeste 0 -- -- 97
2017-12-08 21:00:00 10.7 9 Oeste 12 Oeste 0 -- -- 96
2017-12-08 20:00:00 10.8 10 Oeste 19 Oeste 0 -- -- 94
2017-12-08 19:00:00 12.5 15 Oeste 20 Oeste 0 -- -- 91
2017-12-08 18:00:00 13.1 12 Noroeste 22 Oeste 0 -- -- 87
2017-12-08 17:00:00 15.2 17 Oeste 26 Oeste 0 -- -- 79
2017-12-08 16:00:00 15.6 22 Oeste 30 Oeste 0 -- -- 75
2017-12-08 15:00:00 13.9 15 Oeste 22 Oeste 0 -- -- 79
2017-12-08 14:00:00 13.6 13 Noroeste 19 Oeste 0 -- -- 76
2017-12-08 13:00:00 12.6 10 Oeste 15 Oeste 0 -- -- 67
2017-12-08 12:00:00 10.6 9 Oeste 16 Oeste 0 -- -- 62
2017-12-08 11:00:00 9.7 5 Noroeste 14 Oeste 0 -- -- 61
2017-12-08 10:00:00 7.4 10 Oeste 15 Oeste 0 -- -- 68
2017-12-08 09:00:00 5.2 10 Noroeste 14 Noroeste 0 -- -- 72
2017-12-08 08:00:00 6 6 Oeste 12 Oeste 0 -- -- 68
2017-12-08 07:00:00 6.4 8 Oeste 10 Oeste 0 -- -- 67
2017-12-08 06:00:00 6.2 9 Oeste 12 Oeste 0 -- -- 67
2017-12-08 05:00:00 6.4 4 Sudoeste 9 Sudoeste 0 -- -- 61
2017-12-08 04:00:00 7.4 6 Oeste 7 Sudoeste 0 -- -- 58
2017-12-08 03:00:00 7.3 5 Sudoeste 9 Sudoeste 0 -- -- 58
2017-12-08 02:00:00 6.6 7 Sur 9 Sudoeste 0 -- -- 60
2017-12-08 01:00:00 7.2 9 Sur 10 Sudoeste 0 -- -- 58
2017-12-08 00:00:00 9.3 4 Oeste 7 Norte 0 -- -- 52
2017-12-07 23:00:00 9.2 5 Norte 6 Norte 0 -- -- 49
2017-12-07 22:00:00 9 4 Noroeste 6 Noroeste 0 -- -- 49
2017-12-07 21:00:00 8.9 5 Noroeste 9 Noroeste 0 -- -- 49
2017-12-07 20:00:00 9.4 3 Noroeste 6 Noroeste 0 -- -- 47
2017-12-07 19:00:00 9.7 3 Noroeste 4 Noroeste 0 -- -- 49
2017-12-07 18:00:00 10.6 5 Norte 10 Noroeste 0 -- -- 47
2017-12-07 17:00:00 12.7 6 Noroeste 10 Oeste 0 -- -- 42
2017-12-07 16:00:00 13 6 Oeste 13 Oeste 0 -- -- 43
2017-12-07 15:00:00 13.3 3 Oeste 8 Sudoeste 0 -- -- 42
2017-12-07 14:00:00 11.5 2 Este 12 Noroeste 0 -- -- 52
2017-12-07 13:00:00 9.8 6 Norte 12 Norte 0 -- -- 61
2017-12-07 12:00:00 9.5 5 Sur 8 Sur 0 -- -- 66
2017-12-07 11:00:00 6.4 2 Norte 6 Este 0 -- -- 73
2017-12-07 10:00:00 4.5 5 Este 13 Este 0 -- -- 77
2017-12-07 09:00:00 2 11 Este 15 Nordeste 0 -- -- 85
2017-12-07 08:00:00 1.8 12 Nordeste 13 Este 0 -- -- 85
2017-12-07 07:00:00 4.1 4 Sudeste 9 Este 0 -- -- 74
2017-12-07 06:00:00 3.5 9 Este 13 Este 0 -- -- 79
2017-12-07 05:00:00 3.8 10 Nordeste 13 Este 0 -- -- 79
2017-12-07 04:00:00 3.7 6 Nordeste 10 Nordeste 0 -- -- 77
2017-12-07 03:00:00 5.1 7 Nordeste 10 Nordeste 0 -- -- 70
2017-12-07 02:00:00 5.5 6 Sudeste 10 Sudeste 0 -- -- 65
2017-12-07 01:00:00 5.6 5 Este 10 Este 0 -- -- 65
2017-12-07 00:00:00 6.3 9 Nordeste 10 Este 0 -- -- 62
2017-12-06 23:00:00 6.7 10 Este 12 Este 0 -- -- 61
2017-12-06 22:00:00 6 11 Este 13 Nordeste 0 -- -- 69
2017-12-06 21:00:00 6.1 12 Nordeste 14 Nordeste 0 -- -- 72
2017-12-06 20:00:00 6.8 12 Nordeste 13 Nordeste 0 -- -- 69
2017-12-06 19:00:00 7.2 9 Norte 10 Norte 0 -- -- 66
2017-12-06 18:00:00 9.6 6 Nordeste 8 Nordeste 0 -- -- 50
2017-12-06 17:00:00 10.6 6 Nordeste 9 Nordeste 0 -- -- 54
2017-12-06 16:00:00 11.2 5 Nordeste 11 Nordeste 0 -- -- 51
2017-12-06 15:00:00 11 6 Nordeste 12 Nordeste 0 -- -- 51
2017-12-06 14:00:00 10.8 7 Nordeste 12 Este 0 -- -- 52
2017-12-06 13:00:00 10.3 6 Este 13 Este 0 -- -- 57
2017-12-06 12:00:00 8.2 9 Este 16 Este 0 -- -- 66
2017-12-06 11:00:00 6.1 12 Este 17 Este 0 -- -- 70
2017-12-06 10:00:00 4.1 10 Este 14 Este 0 -- -- 76
2017-12-06 09:00:00 1.8 12 Este 16 Este 0 -- -- 84
2017-12-06 08:00:00 2.3 13 Este 17 Este 0 -- -- 82
2017-12-06 07:00:00 1.9 15 Este 17 Este 0 -- -- 87
2017-12-06 06:00:00 1.5 11 Este 12 Este 0 -- -- 90
2017-12-06 05:00:00 1.8 7 Nordeste 15 Nordeste 0 -- -- 89
2017-12-06 04:00:00 2.3 14 Nordeste 16 Nordeste 0 -- -- 87
2017-12-06 03:00:00 3.1 12 Este 20 Nordeste 0 -- -- 83
2017-12-06 02:00:00 2.7 11 Nordeste 18 Este 0 -- -- 84
2017-12-06 01:00:00 4.6 15 Nordeste 20 Este 0 -- -- 78
2017-12-06 00:00:00 4.2 10 Este 18 Nordeste 0 -- -- 77
2017-12-05 23:00:00 4.8 14 Nordeste 19 Nordeste 0 -- -- 76
2017-12-05 22:00:00 5.4 13 Este 18 Este 0 -- -- 73
2017-12-05 21:00:00 6.5 14 Este 16 Este 0 -- -- 66
2017-12-05 20:00:00 6.8 12 Este 14 Este 0 -- -- 62
2017-12-05 19:00:00 8 10 Nordeste 12 Nordeste 0 -- -- 63
2017-12-05 18:00:00 9.3 8 Este 12 Nordeste 0 -- -- 53
2017-12-05 17:00:00 11.6 7 Nordeste 14 Nordeste 0 -- -- 51
2017-12-05 16:00:00 12.2 8 Este 16 Este 0 -- -- 49
2017-12-05 15:00:00 12 7 Este 16 Este 0 -- -- 49
2017-12-05 14:00:00 10.9 11 Este 19 Este 0 -- -- 54
2017-12-05 13:00:00 10.2 10 Este 20 Este 0 -- -- 58
2017-12-05 12:00:00 8.6 13 Este 20 Sudeste 0 -- -- 64
2017-12-05 11:00:00 7 13 Este 19 Este 0 -- -- 68
2017-12-05 10:00:00 4.9 5 Este 18 Este 0 -- -- 75
2017-12-05 09:00:00 1.3 13 Nordeste 20 Nordeste 0 -- -- 87
2017-12-05 08:00:00 1.4 17 Nordeste 21 Nordeste 0 -- -- 87
2017-12-05 07:00:00 2.5 18 Nordeste 24 Nordeste 0 -- -- 82
2017-12-05 06:00:00 2.2 17 Nordeste 22 Nordeste 0 -- -- 84
2017-12-05 05:00:00 2.3 20 Nordeste 24 Nordeste 0 -- -- 84
2017-12-05 04:00:00 3 17 Nordeste 21 Nordeste 0 -- -- 82
2017-12-05 03:00:00 2.9 17 Nordeste 21 Nordeste 0 -- -- 81
2017-12-05 02:00:00 3.5 14 Nordeste 24 Este 0 -- -- 77
2017-12-05 01:00:00 4.8 17 Este 33 Este 0 -- -- 73
2017-12-05 00:00:00 5.6 25 Este 31 Este 0 -- -- 69
2017-12-04 23:00:00 5.7 21 Nordeste 30 Este 0 -- -- 69
2017-12-04 22:00:00 5.7 20 Nordeste 26 Nordeste 0 -- -- 69
2017-12-04 21:00:00 5.4 17 Nordeste 21 Nordeste 0 -- -- 69
2017-12-04 20:00:00 6.3 14 Nordeste 19 Este 0 -- -- 65
2017-12-04 19:00:00 6.4 12 Nordeste 14 Nordeste 0 -- -- 65
2017-12-04 18:00:00 8.2 12 Nordeste 19 Nordeste 0 -- -- 58
2017-12-04 17:00:00 10.5 14 Nordeste 24 Nordeste 0 -- -- 47
2017-12-04 16:00:00 10.9 15 Nordeste 24 Este 0 -- -- 44
2017-12-04 15:00:00 10.5 18 Nordeste 30 Este 0 -- -- 48
2017-12-04 14:00:00 9.8 18 Este 30 Este 0 -- -- 51
2017-12-04 13:00:00 8.9 19 Este 27 Este 0 -- -- 49
2017-12-04 12:00:00 8 11 Este 20 Este 0 -- -- 58
2017-12-04 11:00:00 5.9 12 Este 17 Este 0 -- -- 60
2017-12-04 10:00:00 3.2 10 Nordeste 14 Este 0 -- -- 68
2017-12-04 09:00:00 1.4 11 Nordeste 12 Nordeste 0 -- -- 72
2017-12-04 08:00:00 0.6 13 Nordeste 16 Nordeste 0 -- -- 76
2017-12-04 07:00:00 1.3 15 Nordeste 17 Nordeste 0 -- -- 71
2017-12-04 06:00:00 1.4 14 Nordeste 19 Este 0 -- -- 71
2017-12-04 05:00:00 1.8 14 Nordeste 16 Nordeste 0 -- -- 69
2017-12-04 04:00:00 2.3 8 Este 18 Este 0 -- -- 65
2017-12-04 03:00:00 2.3 15 Este 19 Nordeste 0 -- -- 67
2017-12-04 02:00:00 2.3 17 Nordeste 19 Nordeste 0 -- -- 72
2017-12-04 01:00:00 2.6 13 Nordeste 16 Nordeste 0 -- -- 70
2017-12-04 00:00:00 3.2 13 Nordeste 19 Nordeste 0 -- -- 68
2017-12-03 23:00:00 3.9 17 Nordeste 21 Nordeste 0 -- -- 66
2017-12-03 22:00:00 3.9 14 Nordeste 24 Nordeste 0 -- -- 66
2017-12-03 21:00:00 4.9 18 Nordeste 30 Nordeste 0 -- -- 62
2017-12-03 20:00:00 5.7 19 Nordeste 29 Nordeste 0 -- -- 58
2017-12-03 19:00:00 6.2 14 Nordeste 20 Nordeste 0 -- -- 56
2017-12-03 18:00:00 8.5 8 Norte 13 Nordeste 0 -- -- 44
2017-12-03 17:00:00 10.3 8 Nordeste 17 Nordeste 0 -- -- 41
2017-12-03 16:00:00 10.5 8 Nordeste 17 Norte 0 -- -- 41
2017-12-03 15:00:00 10.2 9 Nordeste 19 Norte 0 -- -- 40
2017-12-03 14:00:00 9.5 13 Nordeste 23 Nordeste 0 -- -- 45
2017-12-03 13:00:00 8.7 14 Nordeste 22 Nordeste 0 -- -- 47
2017-12-03 12:00:00 7.5 19 Nordeste 27 Nordeste 0 -- -- 54
2017-12-03 11:00:00 6.3 14 Nordeste 24 Nordeste 0 -- -- 57
2017-12-03 10:00:00 4.3 14 Nordeste 22 Nordeste 0 -- -- 63
2017-12-03 09:00:00 2.5 16 Nordeste 24 Nordeste 0 -- -- 70
2017-12-03 08:00:00 2.2 19 Nordeste 28 Nordeste 0 -- -- 72
2017-12-03 07:00:00 2.7 17 Nordeste 31 Nordeste 0 -- -- 71
2017-12-03 06:00:00 2.9 17 Nordeste 30 Este 0 -- -- 71
2017-12-03 05:00:00 2.7 21 Norte 28 Nordeste 0 -- -- 73
2017-12-03 04:00:00 2.5 16 Nordeste 22 Nordeste 0 -- -- 74
2017-12-03 03:00:00 2.8 20 Norte 23 Norte 0 -- -- 73
2017-12-03 02:00:00 2.8 18 Norte 21 Norte 0 -- -- 74
2017-12-03 01:00:00 3.1 17 Norte 20 Norte 0 -- -- 72
2017-12-03 00:00:00 3.4 11 Norte 15 Norte 0 -- -- 71
2017-12-02 23:00:00 4.1 11 Norte 14 Norte 0 -- -- 66
2017-12-02 22:00:00 4.5 10 Norte 17 Norte 0 -- -- 64
2017-12-02 21:00:00 4.8 13 Nordeste 16 Nordeste 0 -- -- 62
2017-12-02 20:00:00 5.7 10 Nordeste 16 Nordeste 0 -- -- 58
2017-12-02 19:00:00 6.1 14 Nordeste 16 Nordeste 0 -- -- 59
2017-12-02 18:00:00 7.6 9 Nordeste 18 Norte 0 -- -- 52
2017-12-02 17:00:00 9.7 15 Norte 24 Norte 0 -- -- 45
2017-12-02 16:00:00 9.9 15 Nordeste 24 Nordeste 0 -- -- 45
2017-12-02 15:00:00 9.5 15 Nordeste 24 Nordeste 0 -- -- 49
2017-12-02 14:00:00 8.8 16 Norte 24 Nordeste 0 -- -- 46
2017-12-02 13:00:00 7.9 19 Norte 28 Nordeste 0 -- -- 48
2017-12-02 12:00:00 6.5 15 Nordeste 21 Nordeste 0 -- -- 56
2017-12-02 11:00:00 4.6 13 Norte 19 Norte 0 -- -- 62
2017-12-02 10:00:00 2.2 8 Norte 14 Norte 0 -- -- 77
2017-12-02 09:00:00 0.4 12 Norte 18 Norte 0 -- -- 79
2017-12-02 08:00:00 -0.1 10 Norte 18 Norte 0 -- -- 81
2017-12-02 07:00:00 0.5 15 Norte 19 Norte 0 -- -- 81
2017-12-02 06:00:00 0.9 10 Nordeste 15 Nordeste 0 -- -- 79
2017-12-02 05:00:00 1.4 6 Norte 17 Norte 0 -- -- 79
2017-12-02 04:00:00 1.9 15 Norte 22 Nordeste 0 -- -- 79
2017-12-02 03:00:00 2.3 16 Nordeste 22 Nordeste 0 -- -- 78
2017-12-02 02:00:00 2.5 15 Nordeste 21 Nordeste 0 -- -- 78
2017-12-02 01:00:00 2.9 12 Nordeste 18 Nordeste 0 -- -- 75
2017-12-02 00:00:00 4.1 14 Nordeste 27 Nordeste 0 -- -- 70
2017-12-01 23:00:00 5.6 21 Nordeste 32 Nordeste 0 -- -- 62
2017-12-01 22:00:00 6 17 Nordeste 28 Nordeste 0 -- -- 68
2017-12-01 21:00:00 7.2 12 Nordeste 24 Nordeste 0 -- -- 75
2017-12-01 20:00:00 7.6 15 Norte 26 Norte 0 -- -- 69
2017-12-01 19:00:00 7.6 17 Norte 30 Noroeste 0 -- -- 66
2017-12-01 18:00:00 9.6 21 Noroeste 48 Norte 0 -- -- 58
2017-12-01 17:00:00 11 32 Norte 53 Norte 0 -- -- 54
2017-12-01 16:00:00 11.3 35 Norte 52 Noroeste 0 -- -- 53
2017-12-01 15:00:00 11.7 37 Norte 51 Noroeste 0 -- -- 54
2017-12-01 14:00:00 11.2 24 Noroeste 43 Noroeste 0 -- -- 55
2017-12-01 13:00:00 10 26 Noroeste 37 Noroeste 0 -- -- 62
2017-12-01 12:00:00 8 18 Noroeste 28 Noroeste 0 -- -- 69
2017-12-01 11:00:00 5.7 18 Noroeste 25 Noroeste 0 -- -- 73
2017-12-01 10:00:00 2.2 11 Noroeste 16 Noroeste 0 -- -- 85
2017-12-01 09:00:00 0.9 12 Noroeste 15 Noroeste 0 -- -- 83
2017-12-01 08:00:00 1.2 11 Norte 12 Norte 0 -- -- 81
2017-12-01 07:00:00 1.7 8 Noroeste 10 Noroeste 0 -- -- 78
2017-12-01 06:00:00 1.3 10 Noroeste 14 Noroeste 0 -- -- 79
2017-12-01 05:00:00 2.2 11 Noroeste 14 Noroeste 0 -- -- 75
2017-12-01 04:00:00 2.2 13 Noroeste 13 Noroeste 0 -- -- 75
2017-12-01 03:00:00 2.9 10 Noroeste 11 Noroeste 0 -- -- 70
2017-12-01 02:00:00 3.3 8 Noroeste 13 Noroeste 0 -- -- 69
2017-12-01 01:00:00 4 8 Noroeste 10 Norte 0 -- -- 66
2017-12-01 00:00:00 3.7 9 Norte 16 Norte 0 -- -- 69
2017-11-30 23:00:00 4.1 14 Norte 21 Norte 0 -- -- 68
2017-11-30 22:00:00 4.6 17 Norte 23 Norte 0 -- -- 66
2017-11-30 21:00:00 5.3 20 Norte 23 Norte 0 -- -- 63
2017-11-30 20:00:00 6 18 Norte 25 Norte 0 -- -- 61
2017-11-30 19:00:00 6.4 13 Norte 19 Norte 0 -- -- 61
2017-11-30 18:00:00 8 11 Norte 21 Nordeste 0 -- -- 54
2017-11-30 17:00:00 10 16 Nordeste 32 Nordeste 0 -- -- 44
2017-11-30 16:00:00 10.6 23 Nordeste 36 Nordeste 0 -- -- 44
2017-11-30 15:00:00 10.6 22 Nordeste 35 Nordeste 0 -- -- 47
2017-11-30 14:00:00 10.3 24 Nordeste 35 Nordeste 0 -- -- 46
2017-11-30 13:00:00 9.5 18 Nordeste 38 Nordeste 0 -- -- 50
2017-11-30 12:00:00 8.1 23 Nordeste 35 Nordeste 0 -- -- 52
2017-11-30 11:00:00 6.6 24 Nordeste 34 Nordeste 0 -- -- 58
2017-11-30 10:00:00 5 25 Nordeste 35 Nordeste 0 -- -- 66
2017-11-30 09:00:00 3.4 26 Nordeste 37 Nordeste 0 -- -- 72
2017-11-30 08:00:00 3.5 26 Nordeste 38 Nordeste 0 -- -- 70
2017-11-30 07:00:00 3.4 21 Nordeste 32 Norte 0 -- -- 72
2017-11-30 06:00:00 3.6 24 Nordeste 32 Nordeste 0 -- -- 73
2017-11-30 05:00:00 3.7 20 Nordeste 28 Nordeste 0 -- -- 77
2017-11-30 04:00:00 3.9 21 Nordeste 30 Nordeste 0 -- -- 79
2017-11-30 03:00:00 4.5 21 Nordeste 27 Nordeste 0 -- -- 76
2017-11-30 02:00:00 4.8 17 Nordeste 24 Nordeste 0 -- -- 74
2017-11-30 01:00:00 4.9 17 Nordeste 22 Nordeste 0 -- -- 74
2017-11-30 00:00:00 5.1 16 Nordeste 23 Norte 0 -- -- 75
2017-11-29 23:00:00 5 18 Norte 26 Norte 0 -- -- 77
2017-11-29 22:00:00 6 18 Norte 26 Norte 0 -- -- 74
2017-11-29 21:00:00 6.5 23 Norte 30 Norte 0 -- -- 73
2017-11-29 20:00:00 6.8 20 Norte 26 Norte 0 -- -- 72
2017-11-29 19:00:00 7.7 17 Norte 27 Norte 0 -- -- 67
2017-11-29 18:00:00 9.1 19 Norte 31 Norte 0 -- -- 66
2017-11-29 17:00:00 11.3 20 Norte 28 Norte 0 -- -- 61
2017-11-29 16:00:00 11.7 23 Norte 31 Norte 0 -- -- 63
2017-11-29 15:00:00 11.8 20 Norte 30 Norte 0 -- -- 63
2017-11-29 14:00:00 11.3 22 Norte 30 Norte 0 -- -- 72
2017-11-29 13:00:00 10.3 24 Norte 30 Norte 0 -- -- 75
2017-11-29 12:00:00 9.2 15 Norte 19 Norte 0 -- -- 77
2017-11-29 11:00:00 8.2 11 Norte 18 Norte 0 -- -- 91
2017-11-29 10:00:00 6.9 7 Nordeste 11 Nordeste 0 -- -- 100
2017-11-29 09:00:00 7.8 0 Calma 12 Norte 0 -- -- 100
2017-11-29 08:00:00 8 10 Noroeste 14 Noroeste 0 -- -- 100
2017-11-29 07:00:00 8.2 10 Noroeste 15 Noroeste 0 -- -- 100
2017-11-29 06:00:00 8.5 7 Noroeste 14 Noroeste 0.2 -- -- 100
2017-11-29 05:00:00 9 10 Noroeste 12 Noroeste 0 -- -- 100
2017-11-29 04:00:00 8.9 9 Norte 15 Norte 0 -- -- 100
2017-11-29 03:00:00 9.1 5 Norte 13 Norte 0 -- -- 100
2017-11-29 02:00:00 9.2 10 Norte 18 Norte 0 -- -- 100
2017-11-29 01:00:00 9.3 5 Este 9 Norte 0 -- -- 99
2017-11-29 00:00:00 9.2 3 Este 9 Nordeste 0.2 -- -- 99
2017-11-28 23:00:00 9 7 Este 13 Este 0.2 -- -- 99
2017-11-28 22:00:00 8.8 12 Nordeste 16 Nordeste 0.2 -- -- 99
2017-11-28 21:00:00 9 11 Nordeste 14 Nordeste 0.8 -- -- 99
2017-11-28 20:00:00 9.2 7 Nordeste 11 Nordeste 1.4 -- -- 99
2017-11-28 19:00:00 9.3 9 Nordeste 12 Nordeste 1 -- -- 98
2017-11-28 18:00:00 9.6 7 Nordeste 9 Nordeste 0 -- -- 98
2017-11-28 17:00:00 9.7 6 Este 9 Este 0.4 -- -- 98
2017-11-28 16:00:00 9.7 6 Este 10 Nordeste 0.2 -- -- 97
2017-11-28 15:00:00 9.7 4 Nordeste 6 Este 0.6 -- -- 97
2017-11-28 14:00:00 9.2 5 Este 8 Este 1 -- -- 97
2017-11-28 13:00:00 8.8 4 Este 6 Este 2 -- -- 97
2017-11-28 12:00:00 8.3 5 Este 10 Este 2.8 -- -- 96
2017-11-28 11:00:00 7.7 5 Este 10 Este 2.6 -- -- 94
2017-11-28 10:00:00 7.9 3 Sudeste 6 Este 1 -- -- 89
2017-11-28 09:00:00 7.8 0 Calma 6 Sur 0.6 -- -- 88
2017-11-28 08:00:00 7.8 4 Sudeste 10 Este 0.4 -- -- 87
2017-11-28 07:00:00 7.8 8 Este 13 Nordeste 0.8 -- -- 87
2017-11-28 06:00:00 8.4 9 Este 13 Nordeste 0 -- -- 78
2017-11-28 05:00:00 8.4 9 Nordeste 12 Nordeste 0 -- -- 80
2017-11-28 04:00:00 8.8 4 Nordeste 8 Nordeste 0 -- -- 73
2017-11-28 03:00:00 8.7 6 Nordeste 10 Nordeste 0 -- -- 78
2017-11-28 02:00:00 8.8 7 Nordeste 9 Nordeste 0 -- -- 75
2017-11-28 01:00:00 8.9 3 Este 7 Este 0 -- -- 70
2017-11-28 00:00:00 9.1 8 Este 14 Nordeste 0 -- -- 72
2017-11-27 23:00:00 9.5 11 Nordeste 14 Nordeste 0 -- -- 66
2017-11-27 22:00:00 9.4 9 Este 15 Nordeste 0 -- -- 67
2017-11-27 21:00:00 9.6 11 Nordeste 14 Nordeste 0 -- -- 66
2017-11-27 20:00:00 9.9 11 Nordeste 14 Nordeste 0 -- -- 62
2017-11-27 19:00:00 9.8 12 Nordeste 14 Nordeste 0 -- -- 64
2017-11-27 18:00:00 10.6 9 Nordeste 13 Nordeste 0 -- -- 60
2017-11-27 17:00:00 12.3 9 Nordeste 13 Nordeste 0 -- -- 56
2017-11-27 16:00:00 13.1 4 Nordeste 8 Este 0 -- -- 49
2017-11-27 15:00:00 13.6 5 Nordeste 18 Este 0 -- -- 45
2017-11-27 14:00:00 12.9 10 Este 21 Este 0 -- -- 50
2017-11-27 13:00:00 11.2 11 Este 16 Este 0 -- -- 54
2017-11-27 12:00:00 9.2 9 Este 24 Este 0 -- -- 57
2017-11-27 11:00:00 7.8 20 Este 27 Este 0 -- -- 61
2017-11-27 10:00:00 6.6 16 Nordeste 26 Este 0 -- -- 65
2017-11-27 09:00:00 6.4 19 Este 27 Este 0 -- -- 62
2017-11-27 08:00:00 6.5 21 Este 31 Este 0 -- -- 62
2017-11-27 07:00:00 6.6 20 Este 28 Este 0 -- -- 62
2017-11-27 06:00:00 7.3 20 Nordeste 28 Nordeste 0 -- -- 60
2017-11-27 05:00:00 7 20 Nordeste 27 Nordeste 0 -- -- 62
2017-11-27 04:00:00 7.5 19 Este 28 Nordeste 0 -- -- 61
2017-11-27 03:00:00 7.6 18 Este 30 Este 0 -- -- 61
2017-11-27 02:00:00 7.1 20 Nordeste 27 Nordeste 0 -- -- 64
2017-11-27 01:00:00 6.8 21 Nordeste 29 Nordeste 0 -- -- 68
2017-11-27 00:00:00 7 21 Nordeste 26 Nordeste 0 -- -- 67
2017-11-26 23:00:00 7.4 20 Nordeste 27 Nordeste 0 -- -- 64
2017-11-26 22:00:00 8.3 23 Nordeste 32 Nordeste 0 -- -- 58
2017-11-26 21:00:00 9.3 23 Este 36 Este 0 -- -- 54
2017-11-26 20:00:00 9.5 20 Este 33 Este 0 -- -- 54
2017-11-26 19:00:00 9.9 18 Este 24 Este 0 -- -- 57
2017-11-26 18:00:00 10.9 14 Nordeste 22 Nordeste 0 -- -- 60
2017-11-26 17:00:00 12.8 13 Nordeste 20 Este 0 -- -- 57
2017-11-26 16:00:00 13.8 14 Nordeste 27 Nordeste 0 -- -- 55
2017-11-26 15:00:00 13.9 15 Nordeste 31 Nordeste 0 -- -- 56
2017-11-26 14:00:00 12.7 21 Nordeste 30 Nordeste 0 -- -- 55
2017-11-26 13:00:00 12.5 22 Este 36 Este 0 -- -- 59
2017-11-26 12:00:00 11.5 28 Este 41 Este 0 -- -- 62
2017-11-26 11:00:00 10 26 Este 39 Nordeste 0 -- -- 68
2017-11-26 10:00:00 8.8 26 Nordeste 35 Nordeste 0 -- -- 72
2017-11-26 09:00:00 7.2 21 Nordeste 30 Nordeste 0 -- -- 79
2017-11-26 08:00:00 7 22 Nordeste 30 Nordeste 0 -- -- 81
2017-11-26 07:00:00 7.1 23 Nordeste 32 Este 0 -- -- 84
2017-11-26 06:00:00 7.2 23 Nordeste 31 Nordeste 0 -- -- 84
2017-11-26 05:00:00 8 23 Nordeste 28 Nordeste 0 -- -- 81
2017-11-26 04:00:00 8.4 21 Nordeste 28 Nordeste 0 -- -- 81
2017-11-26 03:00:00 8.9 18 Nordeste 27 Nordeste 0 -- -- 82
2017-11-26 02:00:00 9.5 20 Nordeste 28 Nordeste 0 -- -- 81
2017-11-26 01:00:00 10.3 21 Nordeste 28 Nordeste 0 -- -- 81
2017-11-26 00:00:00 10.4 17 Nordeste 22 Nordeste 0 -- -- 83
2017-11-25 23:00:00 10.8 15 Nordeste 21 Nordeste 0 -- -- 82
2017-11-25 22:00:00 11.1 13 Nordeste 18 Nordeste 0 -- -- 85
2017-11-25 21:00:00 12.4 12 Nordeste 14 Nordeste 0 -- -- 88
2017-11-25 20:00:00 13.4 6 Norte 6 Norte 0 -- -- 85
2017-11-25 19:00:00 13.7 5 Norte 8 Norte 0 -- -- 84
2017-11-25 18:00:00 14.4 6 Norte 10 Noroeste 0 -- -- 83
2017-11-25 17:00:00 15.1 8 Noroeste 12 Noroeste 0 -- -- 80
2017-11-25 16:00:00 15.7 9 Noroeste 13 Noroeste 0 -- -- 73
2017-11-25 15:00:00 15 7 Noroeste 13 Norte 0 -- -- 75
2017-11-25 14:00:00 14.5 7 Norte 9 Norte 0 -- -- 74
2017-11-25 13:00:00 13.8 3 Oeste 6 Sudoeste 0 -- -- 72
2017-11-25 12:00:00 12.8 3 Norte 8 Norte 0 -- -- 73
2017-11-25 11:00:00 12.2 5 Sudoeste 9 Sur 0 -- -- 68
2017-11-25 10:00:00 11.7 6 Sur 8 Sur 0 -- -- 74
2017-11-25 09:00:00 11.9 4 Sur 9 Sudoeste 0 -- -- 67
2017-11-25 08:00:00 11.6 7 Sur 10 Sur 0 -- -- 70
2017-11-25 07:00:00 11.7 7 Sur 9 Sudeste 0 -- -- 72
2017-11-25 06:00:00 12.5 6 Sudeste 8 Sur 0 -- -- 70
2017-11-25 05:00:00 12.4 6 Sur 12 Sur 0 -- -- 74
2017-11-25 04:00:00 12.8 8 Sudeste 10 Sudeste 0 -- -- 75
2017-11-25 03:00:00 13.9 4 Sudeste 6 Sur 0 -- -- 73
2017-11-25 02:00:00 14 4 Sur 9 Sur 0 -- -- 77
2017-11-25 01:00:00 13.4 8 Sur 11 Sur 0 -- -- 79
2017-11-25 00:00:00 13.6 8 Sur 12 Sur 0 -- -- 78
2017-11-24 23:00:00 13.6 9 Sur 10 Sur 0 -- -- 76
2017-11-24 22:00:00 14.3 5 Sur 8 Sur 0 -- -- 72
2017-11-24 21:00:00 14.3 7 Sudoeste 14 Sudoeste 0 -- -- 73
2017-11-24 20:00:00 15.1 12 Sudoeste 18 Sudoeste 0 -- -- 70
2017-11-24 19:00:00 15.1 14 Sudoeste 19 Sudoeste 0 -- -- 70
2017-11-24 18:00:00 16.1 15 Sudoeste 21 Sudoeste 0 -- -- 69
2017-11-24 17:00:00 17.5 16 Sudoeste 28 Sudoeste 0 -- -- 68
2017-11-24 16:00:00 18.7 19 Sur 31 Sur 0 -- -- 63
2017-11-24 15:00:00 18.6 21 Sur 34 Sur 0 -- -- 65
2017-11-24 14:00:00 18 19 Sur 29 Sur 0 -- -- 68
2017-11-24 13:00:00 17.3 20 Sur 28 Sur 0 -- -- 80
2017-11-24 12:00:00 15 21 Sur 32 Sur 0 -- -- 95
2017-11-24 11:00:00 14.1 23 Sur 33 Sur 0 -- -- 97
2017-11-24 10:00:00 13.7 22 Sur 30 Sur 0 -- -- 98
2017-11-24 09:00:00 13.1 21 Sur 27 Sur 0 -- -- 97
2017-11-24 08:00:00 12.6 15 Sur 22 Sur 0 -- -- 97
2017-11-24 07:00:00 12.3 16 Sur 28 Sur 0.6 -- -- 96
2017-11-24 06:00:00 12.5 11 Sudeste 17 Sudeste 0.2 -- -- 96
2017-11-24 05:00:00 12.4 13 Sudeste 20 Sudeste 0.2 -- -- 95
2017-11-24 04:00:00 12.4 14 Sudeste 20 Sudeste 0 -- -- 92
2017-11-24 03:00:00 12 12 Sudeste 20 Sudeste 0 -- -- 90
2017-11-24 02:00:00 11.8 14 Sudeste 24 Sudeste 0 -- -- 90
2017-11-24 01:00:00 11.3 15 Sudeste 23 Sudeste 0 -- -- 90
2017-11-24 00:00:00 11.1 19 Sudeste 34 Sudeste 0 -- -- 92
2017-11-23 23:00:00 11.2 23 Sudeste 40 Sur 0 -- -- 92
2017-11-23 22:00:00 11.4 14 Sur 19 Sudeste 2.6 -- -- 89
2017-11-23 21:00:00 11.6 11 Sur 24 Sur 8.4 -- -- 87
2017-11-23 20:00:00 13.6 11 Oeste 29 Sudoeste 1.2 -- -- 72
2017-11-23 19:00:00 16.9 16 Sudeste 24 Sur 0 -- -- 43
2017-11-23 18:00:00 18.1 17 Sur 38 Sur 0 -- -- 39
2017-11-23 17:00:00 19.5 21 Sur 42 Sur 0 -- -- 35
2017-11-23 16:00:00 19.4 19 Sur 31 Sur 0 -- -- 39
2017-11-23 15:00:00 18.8 18 Sur 31 Sur 0 -- -- 42
2017-11-23 14:00:00 17.8 22 Sur 29 Sur 0 -- -- 47
2017-11-23 13:00:00 17 18 Sur 25 Sur 0 -- -- 53
2017-11-23 12:00:00 16.4 14 Sur 28 Sur 0 -- -- 55
2017-11-23 11:00:00 14.9 18 Sur 26 Sur 0 -- -- 53
2017-11-23 10:00:00 13.6 10 Sudeste 14 Sur 0 -- -- 57
2017-11-23 09:00:00 13.2 12 Sur 22 Sur 0 -- -- 64
2017-11-23 08:00:00 12.9 17 Sur 25 Sur 0 -- -- 67
2017-11-23 07:00:00 12.3 15 Sur 23 Sur 0 -- -- 67
2017-11-23 06:00:00 12.9 19 Sur 29 Sur 0 -- -- 63
2017-11-23 05:00:00 12.3 18 Sur 23 Sur 0 -- -- 63
2017-11-23 04:00:00 12.8 18 Sur 30 Sur 0 -- -- 57
2017-11-23 03:00:00 13.9 23 Sur 32 Sur 0 -- -- 51
2017-11-23 02:00:00 14.1 20 Sur 26 Sur 0 -- -- 46
2017-11-23 01:00:00 14.6 15 Sudoeste 29 Sur 0 -- -- 43
2017-11-23 00:00:00 14.8 21 Sur 31 Sur 0 -- -- 41
2017-11-22 23:00:00 14.8 16 Sur 27 Sur 0 -- -- 41
2017-11-22 22:00:00 15 19 Sur 24 Sur 0 -- -- 39
2017-11-22 21:00:00 15.9 14 Sur 20 Sur 0 -- -- 39
2017-11-22 20:00:00 15.8 13 Sur 17 Sur 0 -- -- 39
2017-11-22 19:00:00 16 13 Sur 20 Sur 0 -- -- 38
2017-11-22 18:00:00 16.9 15 Sur 22 Sudoeste 0 -- -- 36
2017-11-22 17:00:00 18.2 15 Sur 24 Sudoeste 0 -- -- 33
2017-11-22 16:00:00 18.9 17 Sur 32 Sur 0 -- -- 29
2017-11-22 15:00:00 20.1 23 Sur 31 Sur 0 -- -- 28
2017-11-22 14:00:00 19.3 25 Sur 35 Sur 0 -- -- 27
2017-11-22 13:00:00 18.5 19 Sur 29 Sur 0 -- -- 29
2017-11-22 12:00:00 17.7 13 Sur 21 Sur 0 -- -- 36
2017-11-22 11:00:00 16.2 5 Sur 15 Sudeste 0 -- -- 38
2017-11-22 10:00:00 12.1 8 Este 19 Este 0 -- -- 48
2017-11-22 09:00:00 9.4 9 Este 17 Este 0 -- -- 51
2017-11-22 08:00:00 9.4 13 Este 17 Sudeste 0 -- -- 49
2017-11-22 07:00:00 9.4 9 Este 17 Sudeste 0 -- -- 49
2017-11-22 06:00:00 9.5 11 Este 14 Este 0 -- -- 48
2017-11-22 05:00:00 11.1 9 Este 13 Este 0 -- -- 45
2017-11-22 04:00:00 10.6 9 Este 13 Sudeste 0 -- -- 48
2017-11-22 03:00:00 11.1 9 Este 12 Este 0 -- -- 49
2017-11-22 02:00:00 12.6 9 Este 13 Sudeste 0 -- -- 42
2017-11-22 01:00:00 14.4 9 Sudeste 15 Sudeste 0 -- -- 36
2017-11-22 00:00:00 13.2 8 Sudeste 16 Sudeste 0 -- -- 42
2017-11-21 23:00:00 13.9 9 Sudeste 16 Este 0 -- -- 43
2017-11-21 22:00:00 13.5 10 Este 15 Este 0 -- -- 46
2017-11-21 21:00:00 12.9 14 Este 18 Este 0 -- -- 51
2017-11-21 20:00:00 13.3 13 Nordeste 14 Este 0 -- -- 51
2017-11-21 19:00:00 14.4 6 Norte 14 Este 0 -- -- 47
2017-11-21 18:00:00 17 8 Este 15 Este 0 -- -- 41
2017-11-21 17:00:00 21.6 5 Sudoeste 14 Oeste 0 -- -- 27
2017-11-21 16:00:00 22.1 8 Sur 17 Sur 0 -- -- 28
2017-11-21 15:00:00 21.4 11 Sur 19 Sur 0 -- -- 29
2017-11-21 14:00:00 20.2 8 Sudeste 15 Sudeste 0 -- -- 34
2017-11-21 13:00:00 18.8 7 Sudeste 13 Este 0 -- -- 37
2017-11-21 12:00:00 17.2 3 Sudoeste 8 Sur 0 -- -- 46
2017-11-21 11:00:00 15 6 Sudeste 13 Este 0 -- -- 52
2017-11-21 10:00:00 10.3 8 Este 14 Este 0 -- -- 66
2017-11-21 09:00:00 7.4 12 Este 18 Este 0 -- -- 74
2017-11-21 08:00:00 6.8 14 Este 21 Este 0 -- -- 74
2017-11-21 07:00:00 6.5 8 Nordeste 15 Este 0 -- -- 73
2017-11-21 06:00:00 7.8 10 Este 14 Nordeste 0 -- -- 66
2017-11-21 05:00:00 10.5 6 Sudeste 14 Este 0 -- -- 55
2017-11-21 04:00:00 11 12 Este 15 Este 0 -- -- 54
2017-11-21 03:00:00 12 9 Este 14 Este 0 -- -- 51
2017-11-21 02:00:00 11.9 6 Este 10 Sudeste 0 -- -- 51
2017-11-21 01:00:00 12.5 6 Este 17 Nordeste 0 -- -- 52
2017-11-21 00:00:00 11.9 16 Nordeste 19 Nordeste 0 -- -- 55
2017-11-20 23:00:00 12.1 17 Nordeste 18 Nordeste 0 -- -- 55
2017-11-20 22:00:00 13.3 15 Nordeste 17 Nordeste 0 -- -- 52
2017-11-20 21:00:00 13.7 14 Nordeste 15 Nordeste 0 -- -- 48
2017-11-20 20:00:00 14.7 12 Este 13 Este 0 -- -- 42
2017-11-20 19:00:00 14.7 12 Este 12 Nordeste 0 -- -- 43
2017-11-20 18:00:00 16.5 9 Nordeste 10 Nordeste 0 -- -- 41
2017-11-20 17:00:00 19.2 8 Nordeste 12 Nordeste 0 -- -- 37
2017-11-20 16:00:00 20.1 5 Este 12 Nordeste 0 -- -- 34
2017-11-20 15:00:00 20.2 5 Este 13 Este 0 -- -- 33
2017-11-20 14:00:00 19.6 6 Este 12 Este 0 -- -- 35
2017-11-20 13:00:00 18.6 7 Sudeste 14 Sudeste 0 -- -- 40
2017-11-20 12:00:00 16.1 7 Este 15 Este 0 -- -- 46
2017-11-20 11:00:00 13.5 11 Este 19 Este 0 -- -- 56
2017-11-20 10:00:00 10.1 11 Este 17 Este 0 -- -- 67
2017-11-20 09:00:00 8 16 Nordeste 19 Nordeste 0 -- -- 73
2017-11-20 08:00:00 6.9 12 Nordeste 15 Este 0 -- -- 74
2017-11-20 07:00:00 7.6 12 Nordeste 13 Nordeste 0 -- -- 73
2017-11-20 06:00:00 7.7 9 Nordeste 13 Nordeste 0 -- -- 70
2017-11-20 05:00:00 9.4 9 Este 12 Este 0 -- -- 64
2017-11-20 04:00:00 9.4 9 Este 18 Nordeste 0 -- -- 63
2017-11-20 03:00:00 10.8 17 Nordeste 20 Nordeste 0 -- -- 57
2017-11-20 02:00:00 10.9 18 Nordeste 19 Nordeste 0 -- -- 57
2017-11-20 01:00:00 11.2 14 Este 17 Este 0 -- -- 55
2017-11-20 00:00:00 12.1 11 Este 18 Este 0 -- -- 50
2017-11-19 23:00:00 12.3 14 Este 18 Este 0 -- -- 52
2017-11-19 22:00:00 13.6 17 Nordeste 18 Nordeste 0 -- -- 48
2017-11-19 21:00:00 14.3 14 Nordeste 15 Nordeste 0 -- -- 47
2017-11-19 20:00:00 15.5 9 Nordeste 10 Nordeste 0 -- -- 43
2017-11-19 19:00:00 15.5 9 Norte 9 Norte 0 -- -- 41
2017-11-19 18:00:00 17.8 5 Norte 6 Norte 0 -- -- 37
2017-11-19 17:00:00 19.4 6 Nordeste 10 Nordeste 0 -- -- 34
2017-11-19 16:00:00 19.9 6 Nordeste 12 Nordeste 0 -- -- 33
2017-11-19 15:00:00 20.2 4 Sudeste 13 Nordeste 0 -- -- 34
2017-11-19 14:00:00 19.3 6 Este 14 Este 0 -- -- 37
2017-11-19 13:00:00 17.6 9 Este 16 Este 0 -- -- 41
2017-11-19 12:00:00 15.5 9 Nordeste 14 Este 0 -- -- 48
2017-11-19 11:00:00 14 10 Este 18 Este 0 -- -- 51
2017-11-19 10:00:00 11.8 12 Este 22 Este 0 -- -- 57
2017-11-19 09:00:00 8.8 10 Este 21 Este 0 -- -- 67
2017-11-19 08:00:00 8.4 17 Este 24 Este 0 -- -- 67
2017-11-19 07:00:00 7.8 14 Nordeste 23 Nordeste 0 -- -- 72
2017-11-19 06:00:00 8 13 Nordeste 15 Este 0 -- -- 71
2017-11-19 05:00:00 8.2 7 Nordeste 8 Nordeste 0 -- -- 67
2017-11-19 04:00:00 9 6 Norte 14 Nordeste 0 -- -- 64
2017-11-19 03:00:00 9.4 15 Nordeste 17 Nordeste 0 -- -- 63
2017-11-19 02:00:00 9.8 10 Nordeste 15 Nordeste 0 -- -- 60
2017-11-19 01:00:00 10.4 14 Nordeste 18 Nordeste 0 -- -- 58
2017-11-19 00:00:00 12 16 Nordeste 19 Nordeste 0 -- -- 53
2017-11-18 23:00:00 12.2 15 Nordeste 17 Nordeste 0 -- -- 54
2017-11-18 22:00:00 13.4 13 Nordeste 14 Nordeste 0 -- -- 48
2017-11-18 21:00:00 14.4 13 Nordeste 14 Nordeste 0 -- -- 46
2017-11-18 20:00:00 15.2 10 Nordeste 10 Nordeste 0 -- -- 44
2017-11-18 19:00:00 16.1 7 Norte 8 Norte 0 -- -- 43
2017-11-18 18:00:00 17 7 Norte 13 Norte 0 -- -- 43
2017-11-18 17:00:00 19 9 Norte 15 Nordeste 0 -- -- 39
2017-11-18 16:00:00 19.1 10 Nordeste 18 Nordeste 0 -- -- 37
2017-11-18 15:00:00 18.7 12 Nordeste 24 Nordeste 0 -- -- 37
2017-11-18 14:00:00 18.3 15 Este 25 Este 0 -- -- 37
2017-11-18 13:00:00 16.5 9 Nordeste 16 Este 0 -- -- 45
2017-11-18 12:00:00 14.5 13 Este 22 Este 0 -- -- 50
2017-11-18 11:00:00 12.8 16 Este 23 Este 0 -- -- 55
2017-11-18 10:00:00 10.3 17 Nordeste 23 Nordeste 0 -- -- 66
2017-11-18 09:00:00 8.9 17 Nordeste 24 Este 0 -- -- 68
2017-11-18 08:00:00 8 19 Este 25 Este 0 -- -- 72
2017-11-18 07:00:00 8.1 18 Nordeste 20 Nordeste 0 -- -- 68
2017-11-18 06:00:00 8.7 16 Nordeste 18 Nordeste 0 -- -- 67
2017-11-18 05:00:00 9.6 13 Nordeste 15 Nordeste 0 -- -- 62
2017-11-18 04:00:00 10.3 9 Norte 13 Norte 0 -- -- 57
2017-11-18 03:00:00 11.3 10 Norte 12 Norte 0 -- -- 53
2017-11-18 02:00:00 12.7 10 Norte 13 Norte 0 -- -- 48
2017-11-18 01:00:00 13.3 5 Norte 9 Norte 0 -- -- 47
2017-11-18 00:00:00 14 8 Norte 10 Norte 0 -- -- 46
2017-11-17 23:00:00 14.3 8 Norte 9 Noroeste 0 -- -- 43
2017-11-17 22:00:00 14.9 10 Noroeste 10 Noroeste 0 -- -- 39
2017-11-17 21:00:00 15.4 8 Noroeste 8 Noroeste 0 -- -- 38
2017-11-17 20:00:00 16 6 Norte -- -- 0 -- -- 37
2017-11-17 19:00:00 16.5 5 Noroeste 6 Noroeste 0 -- -- 41
2017-11-17 18:00:00 18.7 -- -- -- -- 0 -- -- 37
2017-11-17 17:00:00 20.1 6 Noroeste 9 Noroeste 0 -- -- 32
2017-11-17 16:00:00 20 4 Norte 10 Noroeste 0 -- -- 33
2017-11-17 15:00:00 19.6 4 Norte 10 Nordeste 0 -- -- 34
2017-11-17 14:00:00 18.4 4 Nordeste 11 Nordeste 0 -- -- 36
2017-11-17 13:00:00 17 7 Nordeste 18 Este 0 -- -- 40
2017-11-17 12:00:00 15.4 12 Nordeste 18 Este 0 -- -- 45
2017-11-17 11:00:00 13.8 9 Nordeste 14 Nordeste 0 -- -- 55
2017-11-17 10:00:00 11 5 Sudeste 7 Sudeste 0 -- -- 61
2017-11-17 09:00:00 9.3 2 Sudeste 8 Este 0 -- -- 62
2017-11-17 08:00:00 8.6 5 Este 8 Sudeste 0 -- -- 64
2017-11-17 07:00:00 7.6 7 Sudeste 11 Nordeste 0 -- -- 68
2017-11-17 06:00:00 8.6 10 Nordeste 10 Nordeste 0 -- -- 63
2017-11-17 05:00:00 9.1 8 Este 9 Este 0 -- -- 60
2017-11-17 04:00:00 10.6 5 Nordeste 6 Nordeste 0 -- -- 54
2017-11-17 03:00:00 11.4 6 Este 9 Este 0 -- -- 52
2017-11-17 02:00:00 11.4 -- -- -- -- 0 -- -- 49
2017-11-17 01:00:00 10.7 11 Nordeste 12 Nordeste 0 -- -- 53
2017-11-17 00:00:00 11.8 8 Este 12 Nordeste 0 -- -- 51